Terminal Aerodrome Forecast
Issued by NWS Cleveland, OH

Home | Current Version | Previous Version | Graphics & Text | Print | Product List | Glossary On
Versions: 1 2 3 4 5 6 7 8 9 10 11 12 13 14 15
000
FTUS41 KCLE 162300
TAFCAK
TAF
KCAK 162338Z 1700/1724 18010KT P6SM VCSH OVC025
     FM170600 23008KT P6SM OVC008
     FM171600 30008KT P6SM SCT008 OVC012
     FM172000 30008KT P6SM SCT012 BKN035=

USA.gov is the U.S. government's official web portal to all federal, state and local government web resources and services.